Kimble County Airport Junction US
ICAO: KJCT
IATA: JCT
Category: Medium
Scheduled Services: No

Elevation: 1749 ft
TransAlt. 18000 ft.

Airport Communications:
ASOS:119.275
HOUSTON CNTR:125.75
SAN ANGELO RDO:122.3
CTAF/UNICOM:122.8

KJCT Zoom In..

Runways:

(A) RW 08 length 2255 ft width 130 ft
---- / hdg 84

(B) RW 17 length 5004 ft width 75 ft
---- / hdg 172

(C) RW 26 length 2255 ft width 130 ft
---- / hdg 264

(D) RW 35 length 5004 ft width 75 ft
---- / hdg 352

Location; KJCT
Day. 24 / Time. 01.51 Zulu
* Altimeter: 30.29
* Temperature: 10° c. 50°f.
* Wind from: 080° Speed 03 kn.
Dewpoint: -13° c.
Visibility: 10 Statute Miles.
Clouds: Clear (automated report).

KJCT 240151Z AUTO 08003KT 10SM CLR 10/M13 A3029 RMK AO2 SLP253 T01001128 $


Wind From 080°
Speed 03 kn.

YouTube Music Video
 
jpsmedia.com for Web Design  worldairports.se 2018   terms of use